Airfield :
LOGIN :

Register | Disclaimer

   EN    FR    IT 

 










Legend :    VFR   Marginal VFR   IFR   Intensive IFR   Very Intensive IFR
Visi :
Ceiling :
>= 8 km
>= 3000ft
5 to 8 km
1000 to 3000 ft
1500m to 5 km
500 to 1000 ft
800 to 1500m
200 to 500 ft
< 800m
< 200 ft
Symbols :   Thunderstorms  Fog  Heavy snow  Heavy precipitations  Wind > 20 kt
SIGMETs :     Misc.  Thunderstorms  Icing  Turbulence  Mountain Waves  Volcanic Ashes







- Airport Elevation : 123 ft
- IATA code : BLQ


LIPE - Bologna Guglielmo Marconi

CURRENT METAR :
  • 151520Z 26007KT 2500 -RA BR SCT008 BKN050 05/04 Q0997

EXPIRED METARs :
  • 151450Z 29010KT 2500 -RA BR SCT008 SCT040 05/04 Q0998
  • 151420Z 32007KT 280V350 3000 BR SCT009 SCT040 05/03 Q0998
  • 151350Z 29009KT 3000 BR SCT006 SCT060 06/04 Q0998
  • 151320Z 28010KT 3500 BR FEW006 SCT060 06/04 Q0998
  • 151250Z 29009KT 2500 BR FEW006 SCT060 06/04 Q0998

TAF TAF LIPE
Valid from the 15 at 12:00 until the 16 at 12:00 UTC


151100Z 1512/1612 VRB05KT 5000 BR SCT015
TEMPO 1512/1524 2000 SHRA
TEMPO 1600/1608 1500 BCFG
TEMPO 1608/1610 3000 TSRA
No reported NOTAMs for that airfield.
1 SIGMET reported for the Milano FIR (LIMM) :
 
Severe turbulence
LIMM SIGMET 8 VALID 151440/151840 LIIP
LIMM MILANO FIR SEV TURB OBS WI N4424 E00903 - N4501 E01033 - N4424 E01231 - N4356 E01125 - N4354 E01017 - N4424 E00903 FL150/250 STNR NC=



MET'MAP, your aeronautical weather chart ! - Copyright ORBIFLY December 2007 - Disclaimer

ORBIFLY MET'MAP TEAM :

Programming & Development : Alexandra Zaïnal
Concept & Development : Baudouin d'Aumeries
Co-Development & Prog : Marc-Olivier Méhu
Technical & hardware support : Manuel Goepfert

Contact : metmap@orbifly.com




SOURCES & CREDITS :

   NOAA